Time;durP1;ratioP1;P1;durP2;ratioP2;P2;SDS_P1;SDS_P2;PMS_P1;PMS_P2;Temp;Humidity;BMP_temperature;BMP_pressure;BME280_temperature;BME280_humidity;BME280_pressure;Samples;Min_cycle;Max_cycle;Signal;HPM_P1;HPM_P2
2022/08/31 00:06:14;;;;;;;1.50;1.40;;;12.80;1.00;;;;;;5093295;28;20444;-72
2022/08/31 00:08:40;;;;;;;1.93;1.67;;;12.80;1.00;;;;;;5094688;28;20443;-71
2022/08/31 00:11:08;;;;;;;1.60;1.50;;;12.80;1.00;;;;;;5094749;28;20411;-70
2022/08/31 00:13:35;;;;;;;1.40;1.30;;;12.80;1.00;;;;;;5094767;28;20157;-71
2022/08/31 00:16:02;;;;;;;1.60;1.50;;;12.80;1.00;;;;;;5093907;28;20490;-74
2022/08/31 00:18:28;;;;;;;1.60;1.50;;;12.80;1.00;;;;;;5094594;28;20511;-70
2022/08/31 00:20:53;;;;;;;1.40;1.30;;;12.70;1.00;;;;;;5094479;28;20478;-71
2022/08/31 00:23:19;;;;;;;1.60;1.50;;;12.70;1.00;;;;;;5093537;28;20227;-72
2022/08/31 00:25:47;;;;;;;1.47;1.37;;;12.70;1.00;;;;;;5093828;28;20184;-73
2022/08/31 00:28:15;;;;;;;1.57;1.47;;;12.70;1.00;;;;;;5093584;28;20189;-72
2022/08/31 00:30:41;;;;;;;1.20;1.10;;;12.70;1.00;;;;;;5093983;28;20430;-72
2022/08/31 00:33:07;;;;;;;1.40;1.30;;;12.70;1.00;;;;;;5094308;28;20404;-70
2022/08/31 00:35:35;;;;;;;1.50;1.40;;;12.60;1.00;;;;;;5094360;28;20404;-70
2022/08/31 00:38:02;;;;;;;1.30;1.20;;;12.60;1.00;;;;;;5093403;28;20836;-71
2022/08/31 00:40:28;;;;;;;1.20;1.10;;;12.60;1.00;;;;;;5094238;28;20738;-70
2022/08/31 00:42:55;;;;;;;2.07;1.70;;;12.60;1.00;;;;;;5092451;28;20461;-72
2022/08/31 00:45:21;;;;;;;1.93;1.50;;;12.60;1.00;;;;;;5094102;28;20423;-71
2022/08/31 00:47:47;;;;;;;2.00;1.80;;;12.50;1.00;;;;;;5093140;28;20450;-72
2022/08/31 00:50:15;;;;;;;3.03;2.70;;;12.50;1.00;;;;;;5093947;28;20490;-70
2022/08/31 00:52:47;;;;;;;3.47;2.90;;;12.50;1.00;;;;;;5094092;28;20191;-70
2022/08/31 00:55:21;;;;;;;3.30;2.80;;;12.40;1.00;;;;;;5093854;28;20475;-69
2022/08/31 00:57:50;;;;;;;2.53;1.80;;;12.40;1.00;;;;;;5091709;28;20506;-71
2022/08/31 01:00:22;;;;;;;1.70;1.60;;;12.40;1.00;;;;;;5093536;28;20415;-73
2022/08/31 01:02:49;;;;;;;4.60;1.93;;;12.40;1.00;;;;;;5093303;28;20484;-72
2022/08/31 01:05:16;;;;;;;1.97;1.73;;;12.40;1.00;;;;;;5093776;28;20404;-72
2022/08/31 01:07:46;;;;;;;2.50;1.40;;;12.40;1.00;;;;;;5092664;28;20455;-71
2022/08/31 01:10:13;;;;;;;1.40;1.30;;;12.40;1.00;;;;;;5093666;28;20453;-70
2022/08/31 01:12:43;;;;;;;1.60;1.50;;;12.30;1.00;;;;;;5093720;28;20400;-70
2022/08/31 01:15:11;;;;;;;2.33;1.40;;;12.30;1.00;;;;;;5093640;28;20399;-70
2022/08/31 01:17:37;;;;;;;1.57;1.47;;;12.30;1.00;;;;;;5091395;28;20431;-71
2022/08/31 01:20:10;;;;;;;1.40;1.30;;;12.30;1.00;;;;;;5093216;28;20410;-71
2022/08/31 01:22:50;;;;;;;1.73;1.63;;;12.30;1.00;;;;;;5093523;28;20485;-72
2022/08/31 01:25:17;;;;;;;1.80;1.70;;;12.20;1.00;;;;;;5093490;28;20407;-72
2022/08/31 01:27:43;;;;;;;1.83;1.40;;;12.20;1.00;;;;;;5092386;28;20416;-72
2022/08/31 01:30:12;;;;;;;2.13;1.90;;;12.20;1.00;;;;;;5093272;28;20454;-70
2022/08/31 01:32:39;;;;;;;1.53;1.40;;;12.10;1.00;;;;;;5093565;28;20810;-72
2022/08/31 01:35:06;;;;;;;1.73;1.63;;;12.10;1.00;;;;;;5093326;28;20841;-70
2022/08/31 01:37:32;;;;;;;2.33;1.97;;;12.10;1.00;;;;;;5091809;28;20862;-72
2022/08/31 01:39:58;;;;;;;1.73;1.63;;;12.10;1.00;;;;;;5093125;28;20453;-70
2022/08/31 01:42:24;;;;;;;1.77;1.67;;;12.00;1.00;;;;;;5092372;28;20400;-71
2022/08/31 01:44:49;;;;;;;2.50;2.10;;;12.00;1.00;;;;;;5093145;28;20236;-70
2022/08/31 01:47:15;;;;;;;1.57;1.47;;;12.00;1.00;;;;;;5092383;28;20403;-72
2022/08/31 01:49:41;;;;;;;1.30;1.20;;;12.00;1.00;;;;;;5092867;28;20224;-72
2022/08/31 01:52:07;;;;;;;2.50;1.80;;;12.00;1.00;;;;;;5093001;28;20959;-70
2022/08/31 01:54:33;;;;;;;1.80;1.70;;;12.00;1.00;;;;;;5093001;28;20158;-72
2022/08/31 01:57:00;;;;;;;2.60;1.73;;;12.00;1.00;;;;;;5091817;28;20173;-71
2022/08/31 01:59:26;;;;;;;2.13;1.57;;;12.00;1.00;;;;;;5091774;28;20194;-72
2022/08/31 02:01:54;;;;;;;1.60;1.50;;;11.90;1.00;;;;;;5092977;28;20461;-71
2022/08/31 02:04:22;;;;;;;1.80;1.70;;;11.90;1.00;;;;;;5093031;28;20395;-70
2022/08/31 02:06:51;;;;;;;2.27;1.63;;;11.90;1.00;;;;;;5092288;28;20410;-70
2022/08/31 02:09:17;;;;;;;1.70;1.53;;;11.90;1.00;;;;;;5093067;28;20564;-70
2022/08/31 02:11:43;;;;;;;1.63;1.53;;;11.90;1.00;;;;;;5091396;28;20908;-72
2022/08/31 02:14:09;;;;;;;2.60;2.17;;;11.80;1.00;;;;;;5092411;28;20489;-71
2022/08/31 02:16:36;;;;;;;1.87;1.77;;;11.80;1.00;;;;;;5092069;28;20219;-70
2022/08/31 02:19:03;;;;;;;1.77;1.50;;;11.80;1.00;;;;;;5092725;28;20435;-70
2022/08/31 02:21:29;;;;;;;1.70;1.60;;;11.80;1.00;;;;;;5092794;28;20490;-71
2022/08/31 02:23:55;;;;;;;2.60;1.83;;;11.80;1.00;;;;;;5091521;28;20840;-72
2022/08/31 02:26:21;;;;;;;9.33;2.00;;;11.80;1.00;;;;;;5090693;28;20462;-71
2022/08/31 02:28:47;;;;;;;1.57;1.47;;;11.70;1.00;;;;;;5092725;28;20201;-71
2022/08/31 02:31:13;;;;;;;1.43;1.30;;;11.70;1.00;;;;;;5092203;28;20218;-71
2022/08/31 02:33:39;;;;;;;1.93;1.83;;;11.70;1.00;;;;;;5092745;28;20454;-72
2022/08/31 02:36:06;;;;;;;1.43;1.33;;;11.70;1.00;;;;;;5091740;28;20413;-72
2022/08/31 02:38:33;;;;;;;5.07;2.50;;;11.70;1.00;;;;;;5092704;28;20431;-71
2022/08/31 02:40:59;;;;;;;1.73;1.60;;;11.70;1.00;;;;;;5092673;28;20407;-70
2022/08/31 02:43:25;;;;;;;1.73;1.63;;;11.70;1.00;;;;;;5092718;28;20888;-71
2022/08/31 02:45:52;;;;;;;1.70;1.60;;;11.70;1.00;;;;;;5092463;28;20408;-71
2022/08/31 02:48:17;;;;;;;1.33;1.23;;;11.70;1.00;;;;;;5091477;28;20220;-72
2022/08/31 02:50:45;;;;;;;1.50;1.40;;;11.70;1.00;;;;;;5091013;28;20447;-71
2022/08/31 02:53:13;;;;;;;2.13;1.73;;;11.70;1.00;;;;;;5094209;28;20460;-70
2022/08/31 02:55:41;;;;;;;1.80;1.70;;;11.70;1.00;;;;;;5096184;28;20403;-70
2022/08/31 02:58:08;;;;;;;1.40;1.30;;;11.60;1.00;;;;;;5095056;28;20443;-71
2022/08/31 03:00:35;;;;;;;1.30;1.20;;;11.60;1.00;;;;;;5096253;28;20431;-70
2022/08/31 03:03:00;;;;;;;1.40;1.30;;;11.60;1.00;;;;;;5096001;28;20419;-70
2022/08/31 03:05:27;;;;;;;1.50;1.40;;;11.60;1.00;;;;;;5095469;28;20517;-70
2022/08/31 03:07:53;;;;;;;1.40;1.30;;;11.60;1.00;;;;;;5095192;28;20189;-72
2022/08/31 03:10:22;;;;;;;1.37;1.27;;;11.50;1.00;;;;;;5095728;28;20455;-70
2022/08/31 03:12:49;;;;;;;1.50;1.40;;;11.50;1.00;;;;;;5095866;28;20395;-71
2022/08/31 03:15:16;;;;;;;1.40;1.30;;;11.50;1.00;;;;;;5094994;28;20412;-71
2022/08/31 03:17:42;;;;;;;2.07;1.63;;;11.50;1.00;;;;;;5094906;28;20427;-72
2022/08/31 03:20:46;;;;;;;1.53;1.40;;;11.50;1.00;;;;;;5095750;28;20479;-71
2022/08/31 03:23:15;;;;;;;2.13;1.43;;;11.50;1.00;;;;;;5033525;28;20424;-70
2022/08/31 03:25:41;;;;;;;1.77;1.40;;;11.40;1.00;;;;;;5094010;28;20519;-70
2022/08/31 03:28:07;;;;;;;1.80;1.40;;;11.40;1.00;;;;;;5093220;28;20435;-70
2022/08/31 03:30:33;;;;;;;4.73;1.70;;;11.40;1.00;;;;;;5094673;28;20422;-72
2022/08/31 03:32:59;;;;;;;2.23;1.90;;;11.40;1.00;;;;;;5095591;28;20469;-71
2022/08/31 03:35:25;;;;;;;1.60;1.50;;;11.40;1.00;;;;;;5095524;28;20415;-70
2022/08/31 03:37:51;;;;;;;1.77;1.67;;;11.40;1.00;;;;;;5094505;28;20409;-72
2022/08/31 03:40:16;;;;;;;1.97;1.77;;;11.40;1.00;;;;;;5094012;28;20411;-72
2022/08/31 03:42:43;;;;;;;1.50;1.40;;;11.40;1.00;;;;;;5094703;28;20205;-71
2022/08/31 03:45:10;;;;;;;1.70;1.60;;;11.40;1.00;;;;;;5095346;28;20695;-70
2022/08/31 03:47:36;;;;;;;2.33;1.40;;;11.40;1.00;;;;;;5094392;28;20483;-71
2022/08/31 03:50:04;;;;;;;1.53;1.43;;;11.40;1.00;;;;;;5095174;28;20538;-70
2022/08/31 03:52:31;;;;;;;2.90;1.63;;;11.40;1.00;;;;;;5095151;28;20181;-70
2022/08/31 03:54:56;;;;;;;1.87;1.67;;;11.40;1.00;;;;;;5095139;28;20378;-71
2022/08/31 03:57:22;;;;;;;1.60;1.50;;;11.30;1.00;;;;;;5094236;28;20386;-71
2022/08/31 03:59:52;;;;;;;1.77;1.63;;;11.30;1.00;;;;;;5093686;28;20240;-70
2022/08/31 04:02:18;;;;;;;1.60;1.50;;;11.20;1.00;;;;;;5094892;28;20234;-70
2022/08/31 04:04:49;;;;;;;3.20;1.50;;;11.20;1.00;;;;;;5094035;28;20415;-72
2022/08/31 04:07:15;;;;;;;2.20;1.80;;;11.20;1.00;;;;;;5094123;28;20415;-70
2022/08/31 04:09:40;;;;;;;1.87;1.77;;;11.20;1.00;;;;;;5094739;28;20455;-71
2022/08/31 04:12:06;;;;;;;1.67;1.57;;;11.20;1.00;;;;;;5094835;28;20523;-71
2022/08/31 04:14:32;;;;;;;1.80;1.70;;;11.20;1.00;;;;;;5094798;28;20173;-69
2022/08/31 04:16:59;;;;;;;2.90;1.90;;;11.20;1.00;;;;;;5093067;28;20219;-71
2022/08/31 04:19:25;;;;;;;1.87;1.73;;;11.10;1.00;;;;;;5094497;28;20430;-71
2022/08/31 04:21:51;;;;;;;2.00;1.73;;;11.10;1.00;;;;;;5094721;28;20399;-71
2022/08/31 04:24:17;;;;;;;1.70;1.60;;;11.10;1.00;;;;;;5094580;28;20407;-70
2022/08/31 04:26:42;;;;;;;3.50;2.10;;;11.10;1.00;;;;;;5093643;28;20172;-71
2022/08/31 04:29:08;;;;;;;1.73;1.63;;;11.10;1.00;;;;;;5094339;28;20212;-72
2022/08/31 04:31:36;;;;;;;2.00;1.80;;;11.00;1.00;;;;;;5094430;28;20203;-71
2022/08/31 04:34:02;;;;;;;1.87;1.60;;;11.00;1.00;;;;;;5094387;28;20166;-72
2022/08/31 04:36:28;;;;;;;1.97;1.80;;;11.00;1.00;;;;;;5092866;28;20483;-70
2022/08/31 04:38:57;;;;;;;2.17;2.00;;;11.00;1.00;;;;;;5094135;28;20422;-71
2022/08/31 04:41:25;;;;;;;1.97;1.87;;;11.00;1.00;;;;;;5094387;28;20403;-72
2022/08/31 04:43:53;;;;;;;1.70;1.60;;;11.00;1.00;;;;;;5094454;28;20400;-71
2022/08/31 04:46:19;;;;;;;2.73;1.97;;;11.00;1.00;;;;;;5093223;28;21240;-71
2022/08/31 04:48:45;;;;;;;1.70;1.60;;;11.00;1.00;;;;;;5093865;28;20451;-71
2022/08/31 04:51:17;;;;;;;4.30;2.30;;;11.00;1.00;;;;;;5094003;28;20407;-70
2022/08/31 04:53:43;;;;;;;2.60;2.40;;;11.00;1.00;;;;;;5093814;28;20439;-70
2022/08/31 04:56:18;;;;;;;1.90;1.80;;;11.00;1.00;;;;;;5091422;28;20407;-70
2022/08/31 04:58:49;;;;;;;2.03;1.93;;;11.00;1.00;;;;;;5093922;28;20405;-71
2022/08/31 05:01:18;;;;;;;2.80;2.20;;;11.00;1.00;;;;;;5093768;28;20411;-71
2022/08/31 05:03:44;;;;;;;3.37;2.50;;;11.00;1.00;;;;;;5093807;28;20404;-70
2022/08/31 05:06:16;;;;;;;2.47;2.27;;;11.00;1.00;;;;;;5092831;28;20465;-70
2022/08/31 05:08:45;;;;;;;5.30;2.60;;;11.10;1.00;;;;;;5093676;28;20197;-71
2022/08/31 05:11:17;;;;;;;4.80;3.10;;;11.10;1.00;;;;;;5092897;28;20383;-71
2022/08/31 05:13:43;;;;;;;2.40;2.20;;;11.10;1.00;;;;;;5093640;28;20406;-70
2022/08/31 05:16:11;;;;;;;2.73;2.37;;;11.10;1.00;;;;;;5092594;28;20816;-72
2022/08/31 05:18:38;;;;;;;4.30;2.70;;;11.10;1.00;;;;;;5093594;28;20424;-71
2022/08/31 05:21:28;;;;;;;3.63;2.77;;;11.10;1.00;;;;;;5093469;28;20461;-70
2022/08/31 05:24:03;;;;;;;3.97;2.17;;;11.10;1.00;;;;;;5092221;28;20504;-72
2022/08/31 05:26:32;;;;;;;3.70;2.00;;;11.20;1.00;;;;;;5092548;28;20415;-70
2022/08/31 05:28:59;;;;;;;2.90;2.70;;;11.20;1.00;;;;;;5091458;28;20494;-72
2022/08/31 05:31:27;;;;;;;3.10;2.80;;;11.20;1.00;;;;;;5093325;28;20393;-71
2022/08/31 05:33:54;;;;;;;7.60;2.87;;;11.30;1.00;;;;;;5093493;28;20407;-70
2022/08/31 05:36:19;;;;;;;3.17;2.87;;;11.30;1.20;;;;;;5092480;28;20423;-72
2022/08/31 05:38:45;;;;;;;2.60;2.40;;;11.40;1.00;;;;;;5093125;28;20419;-71
2022/08/31 05:41:11;;;;;;;3.60;2.87;;;11.40;1.00;;;;;;5092011;28;20184;-70
2022/08/31 05:43:38;;;;;;;6.37;3.20;;;11.40;1.00;;;;;;5091977;28;20642;-70
2022/08/31 05:46:08;;;;;;;2.73;2.20;;;11.50;7.90;;;;;;5092453;28;20411;-72
2022/08/31 05:48:35;;;;;;;4.53;2.60;;;11.50;11.30;;;;;;5091343;28;20451;-70
2022/08/31 05:51:04;;;;;;;3.20;2.47;;;11.60;12.60;;;;;;5093152;28;20743;-72
2022/08/31 05:53:30;;;;;;;4.60;2.50;;;11.60;15.80;;;;;;5092982;28;20880;-70
2022/08/31 05:56:02;;;;;;;3.90;2.33;;;11.70;22.80;;;;;;5092870;28;20417;-71
2022/08/31 05:58:29;;;;;;;7.13;3.00;;;11.70;20.00;;;;;;5091724;28;20193;-71
2022/08/31 06:00:55;;;;;;;3.73;2.60;;;11.80;29.20;;;;;;5093065;28;20427;-70
2022/08/31 06:03:21;;;;;;;5.50;2.20;;;11.80;33.00;;;;;;5092999;28;20397;-72
2022/08/31 06:05:49;;;;;;;2.70;2.50;;;11.90;37.60;;;;;;5092438;28;20408;-71
2022/08/31 06:08:15;;;;;;;7.20;2.70;;;12.00;41.20;;;;;;5091964;28;20189;-70
2022/08/31 06:10:42;;;;;;;2.30;2.10;;;12.00;61.60;;;;;;5092917;28;20891;-71
2022/08/31 06:13:09;;;;;;;2.10;2.00;;;12.10;61.10;;;;;;5092968;28;20541;-72
2022/08/31 06:15:35;;;;;;;2.10;2.00;;;12.20;71.00;;;;;;5092852;28;20461;-72
2022/08/31 06:18:00;;;;;;;2.33;2.23;;;12.20;80.00;;;;;;5091045;28;20524;-73
2022/08/31 06:20:26;;;;;;;2.40;2.20;;;12.30;82.60;;;;;;5092872;28;20170;-71
2022/08/31 06:22:52;;;;;;;2.97;2.23;;;12.40;90.70;;;;;;5092639;28;20170;-72
2022/08/31 06:25:18;;;;;;;3.37;1.93;;;12.40;92.90;;;;;;5091712;28;20187;-70
2022/08/31 06:27:49;;;;;;;6.27;4.27;;;12.50;92.90;;;;;;5091490;28;20203;-70
2022/08/31 06:30:18;;;;;;;27.63;16.63;;;12.60;93.10;;;;;;5095434;28;20208;-72
2022/08/31 06:32:45;;;;;;;19.63;11.30;;;12.70;97.40;;;;;;5095563;28;20408;-72
2022/08/31 06:35:11;;;;;;;5.63;4.50;;;12.80;99.90;;;;;;5096838;28;20395;-70
2022/08/31 06:37:37;;;;;;;4.10;2.70;;;12.90;98.60;;;;;;5095650;28;20395;-70
2022/08/31 06:40:03;;;;;;;4.37;2.47;;;13.00;99.90;;;;;;5096024;28;20418;-72
2022/08/31 06:42:31;;;;;;;7.00;2.90;;;13.10;99.90;;;;;;5096545;28;20208;-72
2022/08/31 06:44:57;;;;;;;2.80;2.10;;;13.20;99.90;;;;;;5095570;28;20498;-69
2022/08/31 06:47:24;;;;;;;1.80;1.67;;;13.30;99.90;;;;;;5094149;28;20418;-72
2022/08/31 06:49:51;;;;;;;3.60;2.03;;;13.40;99.90;;;;;;5096278;28;20538;-72
2022/08/31 06:52:20;;;;;;;2.47;2.27;;;13.50;99.90;;;;;;5096290;28;20403;-70
2022/08/31 06:54:46;;;;;;;2.87;2.50;;;13.60;99.90;;;;;;5095037;28;20469;-71
2022/08/31 06:57:11;;;;;;;2.30;1.50;;;13.70;99.90;;;;;;5094802;28;20412;-70
2022/08/31 06:59:37;;;;;;;13.83;7.43;;;13.90;99.90;;;;;;5096137;28;20266;-72
2022/08/31 07:02:03;;;;;;;18.03;11.13;;;14.00;99.90;;;;;;5095998;28;20275;-72
2022/08/31 07:04:34;;;;;;;11.43;7.50;;;14.10;99.90;;;;;;5094922;28;20605;-70
2022/08/31 07:07:00;;;;;;;7.10;3.37;;;14.30;99.90;;;;;;5095309;28;20534;-69
2022/08/31 07:09:26;;;;;;;3.30;2.77;;;14.30;99.90;;;;;;5095928;28;20458;-73
2022/08/31 07:11:53;;;;;;;3.93;2.07;;;14.40;99.90;;;;;;5094802;28;20169;-70
2022/08/31 07:14:24;;;;;;;2.30;2.00;;;14.50;99.90;;;;;;5095378;28;20787;-71
2022/08/31 07:16:52;;;;;;;3.03;2.07;;;14.60;99.90;;;;;;5094943;28;20428;-70
2022/08/31 07:19:19;;;;;;;2.10;1.90;;;14.60;99.90;;;;;;5095832;28;20496;-72
2022/08/31 07:21:51;;;;;;;1.77;1.67;;;14.70;99.90;;;;;;5095788;28;20461;-70
2022/08/31 07:24:29;;;;;;;1.90;1.73;;;14.80;99.90;;;;;;5094335;28;20788;-72
2022/08/31 07:27:01;;;;;;;1.87;1.77;;;15.00;99.90;;;;;;5094877;28;20408;-72
2022/08/31 07:29:29;;;;;;;1.80;1.70;;;15.20;99.90;;;;;;5095489;28;20456;-70
2022/08/31 07:31:59;;;;;;;2.17;2.00;;;15.30;99.90;;;;;;5095771;28;20502;-70
2022/08/31 07:34:30;;;;;;;1.67;1.50;;;15.50;99.90;;;;;;5094891;28;20407;-70
2022/08/31 07:42:35;;;;;;;1.23;1.10;;;16.20;99.90;;;;;;5095676;28;20408;-73
2022/08/31 07:45:04;;;;;;;1.10;0.97;;;16.40;99.90;;;;;;5094199;28;20930;-73
2022/08/31 07:47:32;;;;;;;1.20;1.00;;;16.60;99.90;;;;;;5093075;28;20556;-73
2022/08/31 07:49:59;;;;;;;1.03;0.93;;;16.80;99.90;;;;;;5095241;28;20910;-71
2022/08/31 07:52:30;;;;;;;1.43;1.00;;;17.20;94.70;;;;;;5095170;28;20423;-71
2022/08/31 07:55:08;;;;;;;1.20;0.90;;;17.50;44.80;;;;;;5094466;28;20435;-71
2022/08/31 07:57:43;;;;;;;1.10;1.00;;;17.60;36.50;;;;;;5092902;28;20415;-70
2022/08/31 08:00:10;;;;;;;1.73;1.57;;;17.60;1.00;;;;;;5095058;28;20415;-71
2022/08/31 08:02:38;;;;;;;0.90;0.80;;;17.80;1.00;;;;;;5094901;28;20419;-72
2022/08/31 08:05:08;;;;;;;1.10;0.83;;;18.10;1.00;;;;;;5094890;28;20415;-73
2022/08/31 08:07:35;;;;;;;4.53;0.90;;;18.20;1.00;;;;;;5092702;28;20404;-73
2022/08/31 08:10:05;;;;;;;1.40;0.73;;;18.50;1.00;;;;;;5093188;28;20511;-72
2022/08/31 08:12:36;;;;;;;1.40;1.20;;;18.60;1.00;;;;;;5094548;28;20487;-74
2022/08/31 08:15:16;;;;;;;1.30;0.80;;;18.50;1.00;;;;;;5094659;28;20436;-74
2022/08/31 08:17:42;;;;;;;1.00;0.90;;;18.50;1.00;;;;;;5092601;28;20935;-70
2022/08/31 08:20:08;;;;;;;1.90;0.77;;;18.50;1.00;;;;;;5093518;28;20415;-70
2022/08/31 08:22:38;;;;;;;2.03;1.10;;;18.60;1.00;;;;;;5094665;28;20410;-72
2022/08/31 08:25:05;;;;;;;1.00;0.80;;;18.80;1.00;;;;;;5093334;28;20980;-73
2022/08/31 08:28:26;;;;;;;5.33;0.90;;;19.00;1.00;;;;;;5091783;28;20765;-71
2022/08/31 08:31:01;;;;;;;0.90;0.70;;;19.10;1.00;;;;;;5031051;28;20803;-71
2022/08/31 08:33:32;;;;;;;1.40;1.00;;;19.30;1.00;;;;;;5032162;28;20405;-71
2022/08/31 08:36:01;;;;;;;1.50;0.80;;;19.30;1.00;;;;;;5081581;28;20885;-71
2022/08/31 08:38:32;;;;;;;4.30;1.00;;;19.30;1.00;;;;;;5094276;28;20431;-70
2022/08/31 08:41:15;;;;;;;1.07;0.80;;;19.50;1.00;;;;;;5094141;28;20806;-73
2022/08/31 08:43:50;;;;;;;1.93;0.80;;;19.60;1.00;;;;;;5094265;28;20926;-70
2022/08/31 08:46:28;;;;;;;1.30;0.87;;;19.80;1.00;;;;;;5091578;28;20425;-70
2022/08/31 08:48:58;;;;;;;1.07;0.80;;;20.00;1.00;;;;;;5093908;28;20470;-73
2022/08/31 08:51:35;;;;;;;1.37;1.07;;;20.30;1.00;;;;;;5093736;28;20505;-73
2022/08/31 08:54:12;;;;;;;1.67;1.00;;;20.60;1.00;;;;;;5092935;28;20438;-73
2022/08/31 08:56:46;;;;;;;1.00;0.80;;;20.90;1.00;;;;;;5093126;28;20437;-73
2022/08/31 08:59:14;;;;;;;1.83;0.83;;;20.90;1.00;;;;;;5093804;28;20775;-73
2022/08/31 09:01:45;;;;;;;1.00;0.80;;;21.00;1.00;;;;;;5092495;28;20431;-73
2022/08/31 09:04:40;;;;;;;0.90;0.70;;;21.00;1.00;;;;;;5093345;28;20404;-73
2022/08/31 09:07:21;;;;;;;0.80;0.60;;;21.00;1.00;;;;;;5091417;28;20420;-71
2022/08/31 09:10:06;;;;;;;0.90;0.60;;;21.20;1.00;;;;;;5093504;28;20951;-73
2022/08/31 09:12:45;;;;;;;1.00;0.70;;;21.50;1.00;;;;;;5093950;28;20411;-70
2022/08/31 09:15:26;;;;;;;1.20;0.83;;;21.50;1.00;;;;;;5092317;28;20916;-71
2022/08/31 09:18:20;;;;;;;0.87;0.63;;;21.30;1.00;;;;;;5092789;28;20428;-74
2022/08/31 09:21:16;;;;;;;1.00;0.60;;;21.20;1.00;;;;;;5093619;28;20410;-71
2022/08/31 09:24:01;;;;;;;1.50;0.90;;;21.20;1.00;;;;;;5092940;28;20411;-73
2022/08/31 09:26:34;;;;;;;1.00;0.80;;;20.90;1.00;;;;;;5092602;28;20403;-70
2022/08/31 09:29:12;;;;;;;0.90;0.70;;;20.30;1.00;;;;;;5092065;28;20562;-70
2022/08/31 09:31:41;;;;;;;1.10;1.00;;;19.90;1.00;;;;;;5092145;28;20410;-74
2022/08/31 09:34:27;;;;;;;1.00;0.73;;;19.70;1.00;;;;;;5092071;28;20497;-73
2022/08/31 09:37:13;;;;;;;1.97;0.70;;;19.60;1.00;;;;;;5092560;28;20410;-70
2022/08/31 09:39:39;;;;;;;2.20;1.00;;;19.50;1.00;;;;;;5093360;28;20441;-74
2022/08/31 09:42:27;;;;;;;1.10;1.00;;;19.10;1.00;;;;;;5092912;28;20502;-72
2022/08/31 09:44:54;;;;;;;1.00;0.70;;;18.90;1.00;;;;;;5093174;28;20408;-73
2022/08/31 09:47:59;;;;;;;1.20;0.97;;;19.10;1.00;;;;;;5092175;28;20498;-71
2022/08/31 09:50:44;;;;;;;1.00;0.80;;;19.40;1.00;;;;;;5084134;28;20478;-74
2022/08/31 09:56:14;;;;;;;0.97;0.70;;;20.90;1.00;;;;;;5092510;28;20757;-72
2022/08/31 09:59:01;;;;;;;0.87;0.63;;;21.20;1.00;;;;;;5093137;28;20921;-74
2022/08/31 10:01:42;;;;;;;0.90;0.70;;;21.30;1.00;;;;;;5092797;28;20415;-71
2022/08/31 10:04:24;;;;;;;0.90;0.70;;;21.50;1.00;;;;;;5094893;28;20962;-70
2022/08/31 10:06:54;;;;;;;1.00;0.70;;;21.80;1.00;;;;;;5096364;28;20412;-70
2022/08/31 10:13:07;;;;;;;2.53;0.70;;;21.40;1.00;;;;;;5034796;28;20912;-74
2022/08/31 10:15:51;;;;;;;0.93;0.60;;;22.00;1.00;;;;;;5034708;28;20398;-72
2022/08/31 10:18:42;;;;;;;2.33;0.60;;;22.50;1.00;;;;;;5096403;28;20414;-70
2022/08/31 10:21:23;;;;;;;0.90;0.70;;;22.50;1.00;;;;;;5096437;28;20395;-74
2022/08/31 10:24:19;;;;;;;0.90;0.70;;;21.70;1.00;;;;;;5096999;28;20908;-74
2022/08/31 10:26:52;;;;;;;1.63;0.70;;;20.80;1.00;;;;;;5096072;28;20395;-73
2022/08/31 10:29:30;;;;;;;1.67;0.80;;;21.00;1.00;;;;;;5096879;28;20592;-72
2022/08/31 10:32:02;;;;;;;1.00;0.70;;;21.90;1.00;;;;;;5095821;28;20498;-74
2022/08/31 10:35:11;;;;;;;1.20;0.70;;;22.50;1.00;;;;;;5095351;28;20403;-71
2022/08/31 10:37:53;;;;;;;1.37;0.80;;;22.00;1.00;;;;;;5094328;28;20411;-73
2022/08/31 10:40:33;;;;;;;1.00;0.70;;;21.00;1.00;;;;;;5096026;28;20456;-74
2022/08/31 10:43:37;;;;;;;0.90;0.70;;;20.90;1.00;;;;;;5096481;28;20414;-71
2022/08/31 10:46:05;;;;;;;1.10;0.80;;;22.00;1.00;;;;;;5082452;28;20927;-71
2022/08/31 10:48:32;;;;;;;1.10;0.80;;;23.00;1.00;;;;;;5096496;28;20465;-74
2022/08/31 10:51:19;;;;;;;1.20;0.80;;;23.10;1.00;;;;;;5095194;28;20455;-70
2022/08/31 10:54:06;;;;;;;1.40;0.97;;;23.10;1.00;;;;;;5095193;28;20407;-71
2022/08/31 10:56:57;;;;;;;2.50;0.70;;;23.60;1.00;;;;;;5095493;28;20496;-74
2022/08/31 10:59:29;;;;;;;1.27;0.60;;;24.20;1.00;;;;;;5095803;28;20427;-71
2022/08/31 11:02:19;;;;;;;0.80;0.60;;;24.80;1.00;;;;;;5094903;28;20438;-70
2022/08/31 11:05:10;;;;;;;0.90;0.60;;;24.80;1.00;;;;;;5095131;28;20411;-71
2022/08/31 11:07:40;;;;;;;1.07;0.70;;;23.40;1.00;;;;;;5095165;28;20416;-74
2022/08/31 11:10:06;;;;;;;1.10;0.80;;;23.00;1.00;;;;;;5095877;28;20497;-73
2022/08/31 11:12:40;;;;;;;1.17;0.80;;;22.90;1.00;;;;;;5096060;28;20395;-70
2022/08/31 11:15:25;;;;;;;0.80;0.60;;;22.40;1.00;;;;;;5095172;28;20166;-73
2022/08/31 11:18:35;;;;;;;1.00;0.70;;;21.70;1.00;;;;;;5093805;28;20474;-74
2022/08/31 11:21:43;;;;;;;1.63;0.80;;;21.00;1.00;;;;;;5016923;28;20450;-71
2022/08/31 11:24:28;;;;;;;1.97;0.90;;;20.60;1.00;;;;;;5094326;28;20779;-70
2022/08/31 11:27:17;;;;;;;1.10;0.80;;;20.30;1.00;;;;;;5094852;28;20404;-74
2022/08/31 11:30:27;;;;;;;0.90;0.70;;;20.20;1.00;;;;;;5095603;28;20530;-70
2022/08/31 11:32:55;;;;;;;3.50;0.90;;;21.50;1.00;;;;;;5083974;28;20433;-71
2022/08/31 11:35:44;;;;;;;1.63;0.80;;;23.30;1.00;;;;;;5095075;28;20452;-71
2022/08/31 11:38:55;;;;;;;1.00;0.80;;;24.20;1.00;;;;;;5085466;28;20454;-73
2022/08/31 11:41:30;;;;;;;3.10;0.80;;;23.50;1.00;;;;;;5095530;28;20438;-72
2022/08/31 11:43:56;;;;;;;2.47;0.70;;;22.80;1.00;;;;;;5094493;28;20445;-70
2022/08/31 11:46:24;;;;;;;0.90;0.63;;;22.40;1.00;;;;;;5094381;28;20426;-73
2022/08/31 11:48:52;;;;;;;1.10;0.70;;;22.40;1.00;;;;;;5095122;28;20520;-71
2022/08/31 11:51:31;;;;;;;1.13;0.87;;;22.60;1.00;;;;;;5095494;28;20396;-72
2022/08/31 11:54:00;;;;;;;1.00;0.77;;;22.20;1.00;;;;;;5094978;28;20376;-74
2022/08/31 11:56:38;;;;;;;2.37;0.90;;;22.40;1.00;;;;;;5093895;28;20486;-73
2022/08/31 11:59:30;;;;;;;1.60;0.83;;;22.90;1.00;;;;;;5095044;28;20453;-71
2022/08/31 12:01:59;;;;;;;1.03;0.60;;;24.00;1.00;;;;;;5095061;28;20785;-74
2022/08/31 12:04:46;;;;;;;1.10;0.70;;;24.20;1.00;;;;;;5094895;28;20410;-73
2022/08/31 12:07:47;;;;;;;1.20;0.80;;;23.80;1.00;;;;;;5094144;28;20452;-71
2022/08/31 12:10:34;;;;;;;1.07;0.70;;;22.90;1.00;;;;;;5032440;28;20449;-72
2022/08/31 12:13:26;;;;;;;0.90;0.63;;;22.20;1.00;;;;;;5090605;28;20421;-74
2022/08/31 12:15:57;;;;;;;1.00;0.70;;;21.40;1.00;;;;;;5091753;28;20577;-73
2022/08/31 12:18:43;;;;;;;1.03;0.80;;;21.00;1.00;;;;;;5093938;28;20506;-73
2022/08/31 12:24:11;;;;;;;1.40;0.90;;;20.90;1.00;;;;;;5094696;28;20773;-74
2022/08/31 12:27:16;;;;;;;0.90;0.70;;;20.90;1.00;;;;;;5092799;28;20888;-71
2022/08/31 12:29:42;;;;;;;3.03;1.10;;;20.90;1.00;;;;;;5075752;28;20470;-73
2022/08/31 12:32:27;;;;;;;0.90;0.70;;;21.40;1.00;;;;;;5094549;28;20915;-73
2022/08/31 12:35:11;;;;;;;0.90;0.73;;;21.70;1.00;;;;;;5094363;28;20400;-75
2022/08/31 12:37:38;;;;;;;1.00;0.70;;;21.70;1.00;;;;;;5093316;28;20904;-71
2022/08/31 12:40:20;;;;;;;1.27;0.70;;;21.70;1.00;;;;;;5094255;28;20415;-73
2022/08/31 12:42:54;;;;;;;1.00;0.87;;;22.00;1.00;;;;;;5094229;28;20398;-72
2022/08/31 12:45:42;;;;;;;1.10;0.87;;;22.30;1.00;;;;;;5094203;28;20494;-71
2022/08/31 12:48:26;;;;;;;1.50;0.63;;;21.90;1.00;;;;;;5092904;28;20416;-71
2022/08/31 12:51:04;;;;;;;2.10;0.70;;;21.60;1.00;;;;;;5094052;28;20416;-72
2022/08/31 12:54:17;;;;;;;0.90;0.70;;;22.80;1.00;;;;;;5094006;28;20410;-71
2022/08/31 12:56:52;;;;;;;0.90;0.60;;;24.60;1.00;;;;;;5093169;28;20494;-73
2022/08/31 12:59:39;;;;;;;2.60;0.70;;;25.40;1.00;;;;;;5094028;28;20442;-74
2022/08/31 13:02:09;;;;;;;1.87;0.93;;;25.80;1.00;;;;;;5092999;28;20427;-73
2022/08/31 13:04:35;;;;;;;0.90;0.70;;;25.70;1.00;;;;;;5093960;28;20428;-70
2022/08/31 13:07:34;;;;;;;0.90;0.60;;;25.50;1.00;;;;;;5092285;28;20407;-72
2022/08/31 13:10:15;;;;;;;0.97;0.80;;;25.10;1.00;;;;;;5060274;28;20634;-71
2022/08/31 13:12:56;;;;;;;1.20;0.67;;;24.90;1.00;;;;;;5093876;28;20411;-72
2022/08/31 13:15:28;;;;;;;1.33;0.80;;;24.70;1.00;;;;;;5093722;28;20803;-73
2022/08/31 13:17:55;;;;;;;2.07;0.77;;;24.70;1.00;;;;;;5092898;28;20439;-70
2022/08/31 13:20:25;;;;;;;1.20;0.70;;;24.50;1.00;;;;;;5093640;28;20407;-75
2022/08/31 13:22:57;;;;;;;1.10;0.70;;;24.10;1.00;;;;;;5093543;28;20943;-72
2022/08/31 13:25:34;;;;;;;0.93;0.60;;;23.50;1.00;;;;;;5093006;28;20408;-73
2022/08/31 13:28:21;;;;;;;0.90;0.63;;;23.20;1.00;;;;;;5092588;28;20447;-72
2022/08/31 13:30:59;;;;;;;1.63;0.70;;;23.10;1.00;;;;;;5092799;28;20463;-74
2022/08/31 13:33:30;;;;;;;0.90;0.60;;;23.40;1.00;;;;;;5093468;28;20410;-73
2022/08/31 13:36:39;;;;;;;2.00;0.77;;;23.80;1.00;;;;;;5093289;28;20395;-74
2022/08/31 13:39:27;;;;;;;1.10;0.57;;;23.90;1.00;;;;;;5072896;28;20443;-75
2022/08/31 13:42:04;;;;;;;1.30;1.00;;;24.00;1.00;;;;;;5093430;28;20400;-74
2022/08/31 13:44:34;;;;;;;0.93;0.50;;;24.10;1.00;;;;;;5092946;28;20418;-72